Time;durP1;ratioP1;P1;durP2;ratioP2;P2;SDS_P1;SDS_P2;PMS_P1;PMS_P2;Temp;Humidity;BMP_temperature;BMP_pressure;BME280_temperature;BME280_humidity;BME280_pressure;Samples;Min_cycle;Max_cycle;Signal;HPM_P1;HPM_P2
2022/01/14 00:00:32;;;;;;;20.77;10.63;;;3.70;75.00;3.50;98246.00;;;;5015365;28;20468;-88
2022/01/14 00:02:59;;;;;;;22.17;11.70;;;3.70;75.00;3.50;98239.00;;;;5015868;28;20425;-88
2022/01/14 00:05:28;;;;;;;21.97;12.13;;;3.70;75.00;3.50;98241.00;;;;5016031;28;20787;-88
2022/01/14 00:07:55;;;;;;;22.03;12.07;;;3.70;75.10;3.50;98237.00;;;;5015788;28;20843;-88
2022/01/14 00:10:27;;;;;;;23.60;13.17;;;3.70;75.00;3.50;98239.00;;;;5015879;28;20469;-88
2022/01/14 00:12:57;;;;;;;23.50;11.60;;;3.70;75.70;3.50;98235.00;;;;5015921;28;20437;-88
2022/01/14 00:15:26;;;;;;;22.83;12.00;;;3.70;75.00;3.50;98233.00;;;;5016591;28;20221;-88
2022/01/14 00:17:55;;;;;;;23.10;12.77;;;3.70;75.00;3.50;98228.00;;;;5025310;28;20437;-88
2022/01/14 00:20:22;;;;;;;25.93;13.53;;;3.70;74.70;3.50;98226.00;;;;5035270;28;20456;-88
2022/01/14 00:22:51;;;;;;;23.53;12.00;;;3.70;74.60;3.50;98219.00;;;;5037168;28;20409;-89
2022/01/14 00:33:29;;;;;;;25.93;13.53;;;3.60;74.60;3.40;98200.00;;;;5016132;28;20476;-88
2022/01/14 00:35:56;;;;;;;29.47;14.33;;;3.60;74.60;3.40;98200.00;;;;5015651;28;20437;-88
2022/01/14 00:38:25;;;;;;;27.30;13.80;;;3.60;74.50;3.30;98200.00;;;;5015298;28;20456;-89
2022/01/14 00:40:52;;;;;;;28.00;14.03;;;3.50;74.30;3.30;98194.00;;;;5015666;28;20226;-88
2022/01/14 00:43:19;;;;;;;26.40;12.80;;;3.50;74.40;3.30;98200.00;;;;5015954;28;20448;-89
2022/01/14 00:45:46;;;;;;;25.37;13.43;;;3.50;74.50;3.30;98194.00;;;;5015562;28;20432;-89
2022/01/14 00:48:14;;;;;;;26.40;12.37;;;3.50;74.80;3.30;98193.00;;;;5015827;28;20501;-88
2022/01/14 00:50:44;;;;;;;28.00;14.30;;;3.50;74.80;3.30;98197.00;;;;5015353;28;20218;-88
2022/01/14 00:53:11;;;;;;;23.83;12.97;;;3.50;74.70;3.30;98187.00;;;;5015799;28;20202;-88
2022/01/14 00:55:55;;;;;;;27.47;13.33;;;3.50;74.70;3.30;98190.00;;;;5015237;28;20564;-87
2022/01/14 01:01:06;;;;;;;25.67;12.60;;;3.50;74.80;3.30;98185.00;;;;5015343;28;20408;-88
2022/01/14 01:03:34;;;;;;;30.03;12.97;;;3.50;74.80;3.30;98181.00;;;;5014769;28;20456;-87
2022/01/14 01:06:01;;;;;;;25.10;12.00;;;3.50;74.80;3.30;98187.00;;;;5014944;28;20459;-88
2022/01/14 01:08:31;;;;;;;26.23;12.47;;;3.50;74.80;3.30;98193.00;;;;5014509;28;20479;-88
2022/01/14 01:10:59;;;;;;;28.57;13.40;;;3.50;74.80;3.30;98188.00;;;;5015726;28;20452;-87
2022/01/14 01:13:31;;;;;;;27.20;13.23;;;3.50;74.90;3.30;98197.00;;;;5017519;28;20470;-88
2022/01/14 01:15:58;;;;;;;23.50;12.43;;;3.50;74.90;3.30;98192.00;;;;5014127;28;20445;-87
2022/01/14 01:18:25;;;;;;;24.53;12.10;;;3.50;74.80;3.30;98194.00;;;;5014399;28;20530;-88
2022/01/14 01:20:53;;;;;;;26.43;12.87;;;3.50;74.80;3.30;98196.00;;;;5013919;28;20464;-87
2022/01/14 01:23:21;;;;;;;22.40;11.67;;;3.50;74.90;3.30;98198.00;;;;5014168;28;20524;-87
2022/01/14 01:25:54;;;;;;;22.13;11.37;;;3.50;74.80;3.20;98193.00;;;;5013944;28;20935;-88
2022/01/14 01:28:22;;;;;;;20.00;10.80;;;3.40;74.80;3.20;98189.00;;;;5014008;28;20508;-87
2022/01/14 01:31:04;;;;;;;22.80;10.83;;;3.40;74.70;3.20;98189.00;;;;5013973;28;20922;-88
2022/01/14 01:33:33;;;;;;;18.00;10.23;;;3.40;74.90;3.20;98193.00;;;;5013921;28;20816;-87
2022/01/14 01:36:00;;;;;;;23.97;11.47;;;3.40;75.00;3.30;98199.00;;;;5013655;28;20234;-88
2022/01/14 01:38:27;;;;;;;20.27;10.70;;;3.40;75.10;3.30;98194.00;;;;5013599;28;20463;-88
2022/01/14 01:40:55;;;;;;;17.77;10.50;;;3.40;75.00;3.30;98197.00;;;;5013372;28;20214;-87
2022/01/14 01:43:26;;;;;;;20.57;10.37;;;3.40;75.00;3.30;98198.00;;;;5003169;28;20441;-88
2022/01/14 01:45:55;;;;;;;19.93;10.07;;;3.40;74.90;3.30;98189.00;;;;5005324;28;20440;-88
2022/01/14 01:48:23;;;;;;;16.93;9.40;;;3.40;75.70;3.30;98201.00;;;;5012656;28;20483;-87
2022/01/14 01:50:50;;;;;;;18.77;10.20;;;3.40;75.10;3.30;98196.00;;;;5013415;28;20970;-87
2022/01/14 01:53:17;;;;;;;23.60;11.87;;;3.40;75.10;3.30;98191.00;;;;5013625;28;20453;-87
2022/01/14 01:55:44;;;;;;;20.27;10.80;;;3.40;75.10;3.30;98186.00;;;;5013183;28;20524;-87
2022/01/14 01:58:12;;;;;;;33.00;11.70;;;3.40;74.90;3.30;98190.00;;;;5012882;28;20449;-88
2022/01/14 02:00:40;;;;;;;20.60;11.07;;;3.40;75.10;3.30;98195.00;;;;5013193;28;20471;-87
2022/01/14 02:03:08;;;;;;;20.43;11.57;;;3.40;75.00;3.30;98183.00;;;;5013348;28;20480;-88
2022/01/14 02:05:35;;;;;;;25.03;10.53;;;3.40;75.00;3.30;98195.00;;;;5013173;28;20421;-87
2022/01/14 02:08:03;;;;;;;22.50;11.13;;;3.40;75.10;3.30;98186.00;;;;5012596;28;20459;-89
2022/01/14 02:10:30;;;;;;;18.57;10.87;;;3.50;75.10;3.30;98179.00;;;;5013356;28;20524;-87
2022/01/14 02:12:57;;;;;;;20.83;10.63;;;3.50;75.10;3.30;98179.00;;;;5013268;28;20431;-87
2022/01/14 02:15:44;;;;;;;19.53;10.73;;;3.40;75.20;3.30;98183.00;;;;5012699;28;20433;-87
2022/01/14 02:24:09;;;;;;;19.20;10.20;;;3.50;75.20;3.30;98173.00;;;;5013199;28;20408;-88
2022/01/14 02:26:48;;;;;;;17.20;9.40;;;3.50;74.90;3.30;98171.00;;;;5013336;28;20288;-87
2022/01/14 02:29:16;;;;;;;18.17;10.13;;;3.50;74.70;3.30;98166.00;;;;5012871;28;20978;-89
2022/01/14 02:31:43;;;;;;;16.67;9.27;;;3.50;74.80;3.30;98168.00;;;;5012853;28;20948;-88
2022/01/14 02:34:11;;;;;;;19.27;10.27;;;3.50;74.80;3.30;98155.00;;;;5013035;28;20193;-88
2022/01/14 02:36:43;;;;;;;17.43;9.40;;;3.50;74.90;3.30;98156.00;;;;5030182;28;20799;-88
2022/01/14 02:39:12;;;;;;;17.63;9.30;;;3.50;74.80;3.30;98156.00;;;;5003671;28;20450;-89
2022/01/14 02:41:42;;;;;;;17.23;10.10;;;3.50;74.80;3.30;98154.00;;;;4993185;28;20437;-88
2022/01/14 02:44:17;;;;;;;18.70;9.40;;;3.50;74.70;3.30;98159.00;;;;5000127;28;20445;-88
2022/01/14 02:46:52;;;;;;;14.93;9.57;;;3.50;74.60;3.20;98157.00;;;;5012826;28;20439;-88
2022/01/14 02:49:19;;;;;;;15.20;9.23;;;3.50;74.40;3.20;98162.00;;;;5012677;28;20480;-88
2022/01/14 02:51:48;;;;;;;15.63;9.70;;;3.40;74.40;3.20;98156.00;;;;5013095;28;20288;-88
2022/01/14 02:54:20;;;;;;;14.30;8.80;;;3.40;74.40;3.20;98152.00;;;;5013116;28;20465;-88
2022/01/14 02:56:51;;;;;;;14.97;9.33;;;3.40;74.30;3.20;98139.00;;;;5013174;28;20436;-88
2022/01/14 02:59:20;;;;;;;14.90;9.20;;;3.40;74.50;3.20;98142.00;;;;5012851;28;20233;-89
2022/01/14 03:01:50;;;;;;;14.30;9.07;;;3.40;74.50;3.20;98134.00;;;;5016346;28;20190;-89
2022/01/14 03:04:20;;;;;;;17.13;9.83;;;3.40;74.50;3.20;98138.00;;;;5016753;28;20793;-88
2022/01/14 03:06:52;;;;;;;15.57;9.53;;;3.40;74.40;3.20;98133.00;;;;5016755;28;20265;-89
2022/01/14 03:09:19;;;;;;;16.13;9.67;;;3.40;74.40;3.20;98132.00;;;;5016457;28;20820;-88
2022/01/14 03:11:50;;;;;;;17.27;9.50;;;3.50;74.40;3.20;98121.00;;;;5016674;28;20444;-88
2022/01/14 03:16:51;;;;;;;15.87;9.77;;;3.40;74.20;3.10;98120.00;;;;5004098;28;20261;-82
2022/01/14 03:19:21;;;;;;;15.57;9.93;;;3.30;74.20;3.10;98118.00;;;;4998771;28;20861;-82
2022/01/14 03:21:52;;;;;;;16.73;9.60;;;3.30;74.10;3.10;98104.00;;;;4998928;28;20430;-82
2022/01/14 03:24:23;;;;;;;16.03;10.00;;;3.30;73.80;3.00;98108.00;;;;4998649;28;20422;-82
2022/01/14 03:26:53;;;;;;;18.80;10.70;;;3.30;73.90;3.00;98103.00;;;;4998259;28;20508;-82
2022/01/14 03:29:20;;;;;;;18.20;11.00;;;3.30;73.90;3.00;98104.00;;;;4997565;28;20478;-83
2022/01/14 03:31:48;;;;;;;15.77;9.07;;;3.30;73.80;2.90;98091.00;;;;5011001;28;20447;-83
2022/01/14 03:34:16;;;;;;;17.00;9.57;;;3.30;73.70;2.90;98086.00;;;;5016963;28;20831;-84
2022/01/14 03:36:43;;;;;;;15.17;9.70;;;3.30;73.80;2.90;98079.00;;;;5016231;28;20440;-83
2022/01/14 03:39:12;;;;;;;16.37;9.63;;;3.10;74.30;2.90;98077.00;;;;5017155;28;20449;-82
2022/01/14 03:41:39;;;;;;;17.73;10.87;;;3.10;73.60;2.80;98070.00;;;;5017584;28;20473;-82
2022/01/14 03:44:07;;;;;;;15.47;9.77;;;3.10;73.60;2.80;98070.00;;;;5017636;28;20441;-83
2022/01/14 03:46:34;;;;;;;18.20;9.57;;;3.10;73.70;2.80;98069.00;;;;5017756;28;20460;-83
2022/01/14 03:49:01;;;;;;;17.30;10.10;;;3.20;73.80;2.80;98072.00;;;;5018087;28;21210;-82
2022/01/14 03:51:28;;;;;;;16.47;10.10;;;3.00;73.80;2.80;98086.00;;;;5018081;28;20934;-83
2022/01/14 03:53:56;;;;;;;15.30;9.67;;;3.00;73.80;2.70;98083.00;;;;5016858;28;20962;-84
2022/01/14 03:56:25;;;;;;;16.53;10.03;;;3.00;73.80;2.70;98080.00;;;;5018049;28;20468;-82
2022/01/14 03:58:53;;;;;;;14.90;9.50;;;3.00;73.80;2.70;98078.00;;;;5018264;28;20441;-82
2022/01/14 04:01:20;;;;;;;15.53;9.27;;;2.90;73.70;2.70;98074.00;;;;5017340;28;20433;-83
2022/01/14 04:03:49;;;;;;;12.60;8.37;;;2.90;73.50;2.70;98074.00;;;;5016408;28;20997;-83
2022/01/14 04:06:18;;;;;;;14.10;8.77;;;2.90;73.80;2.70;98069.00;;;;5016635;28;20467;-82
2022/01/14 04:08:46;;;;;;;14.53;8.97;;;2.90;73.90;2.60;98057.00;;;;5017959;28;20485;-82
2022/01/14 04:11:14;;;;;;;13.67;8.40;;;2.90;74.00;2.60;98067.00;;;;5019965;28;20516;-83
2022/01/14 04:13:47;;;;;;;13.23;7.60;;;2.80;73.90;2.60;98067.00;;;;5016286;28;20437;-82
2022/01/14 04:16:15;;;;;;;13.17;8.13;;;2.80;73.80;2.60;98063.00;;;;5030747;28;20509;-82
2022/01/14 04:18:43;;;;;;;10.87;7.67;;;2.80;73.80;2.60;98067.00;;;;5017900;28;20445;-84
2022/01/14 04:21:11;;;;;;;11.23;8.10;;;2.80;73.90;2.60;98068.00;;;;5016746;28;20453;-84
2022/01/14 04:23:38;;;;;;;11.60;8.37;;;2.80;73.80;2.60;98064.00;;;;5016415;28;20519;-83
2022/01/14 04:26:05;;;;;;;13.10;8.23;;;2.80;73.90;2.60;98062.00;;;;5015790;28;20457;-83
2022/01/14 04:28:35;;;;;;;13.33;8.30;;;2.80;73.90;2.60;98058.00;;;;5015073;28;20437;-81
2022/01/14 04:31:06;;;;;;;14.30;7.93;;;2.80;74.00;2.50;98060.00;;;;5015757;28;20434;-82
2022/01/14 04:33:34;;;;;;;13.93;8.90;;;2.80;74.00;2.60;98050.00;;;;4999968;28;20445;-83
2022/01/14 04:36:06;;;;;;;13.77;8.80;;;2.80;74.00;2.50;98046.00;;;;5014528;28;20468;-82
2022/01/14 04:38:34;;;;;;;13.80;8.90;;;2.80;74.00;2.50;98043.00;;;;5013582;28;21053;-83
2022/01/14 04:41:02;;;;;;;14.53;8.37;;;2.80;74.00;2.50;98041.00;;;;5014557;28;20448;-82
2022/01/14 04:43:30;;;;;;;13.47;8.40;;;2.80;74.00;2.50;98035.00;;;;5015080;28;20433;-82
2022/01/14 04:46:35;;;;;;;17.10;10.00;;;2.80;74.00;2.50;98043.00;;;;5014898;28;20461;-81
2022/01/14 04:49:03;;;;;;;14.10;8.93;;;2.80;74.10;2.50;98030.00;;;;5014612;28;20476;-84
2022/01/14 04:51:30;;;;;;;14.10;8.70;;;2.80;74.00;2.50;98031.00;;;;5014924;28;20433;-82
2022/01/14 04:53:57;;;;;;;16.73;9.00;;;2.70;74.00;2.50;98036.00;;;;5014705;28;20973;-84
2022/01/14 04:56:24;;;;;;;13.23;8.60;;;2.70;73.90;2.50;98031.00;;;;5014947;28;20467;-82
2022/01/14 04:58:52;;;;;;;14.07;8.47;;;2.70;74.10;2.50;98035.00;;;;5014152;28;20441;-83
2022/01/14 05:01:19;;;;;;;16.47;9.73;;;2.70;74.20;2.50;98030.00;;;;5015539;28;20449;-83
2022/01/14 05:03:46;;;;;;;17.10;9.83;;;2.70;74.30;2.50;98032.00;;;;5014427;28;20448;-83
2022/01/14 05:06:14;;;;;;;17.33;9.03;;;2.70;74.40;2.50;98037.00;;;;5014737;28;20449;-83
2022/01/14 05:08:41;;;;;;;19.57;9.70;;;2.80;74.50;2.60;98037.00;;;;5011407;28;21115;-82
2022/01/14 05:11:23;;;;;;;17.23;10.10;;;2.80;74.50;2.60;98038.00;;;;5015160;28;20437;-81
2022/01/14 05:13:52;;;;;;;16.97;9.73;;;2.30;74.20;2.60;98035.00;;;;5019591;28;20441;-83
2022/01/14 05:16:19;;;;;;;12.57;7.90;;;2.80;74.50;2.60;98029.00;;;;5029571;28;20473;-81
2022/01/14 05:18:46;;;;;;;14.37;8.87;;;2.80;74.50;2.60;98029.00;;;;5018502;28;20433;-84
2022/01/14 05:21:14;;;;;;;13.40;8.80;;;2.80;74.50;2.60;98033.00;;;;5016999;28;20965;-83
2022/01/14 05:23:43;;;;;;;12.07;7.87;;;2.80;74.40;2.60;98050.00;;;;5018464;28;20443;-81
2022/01/14 05:26:11;;;;;;;13.70;8.30;;;2.80;74.50;2.60;98036.00;;;;5018586;28;20457;-83
2022/01/14 05:28:39;;;;;;;12.57;8.87;;;2.80;74.60;2.60;98029.00;;;;5020046;28;20471;-84
2022/01/14 05:31:06;;;;;;;13.27;8.70;;;2.80;74.50;2.60;98033.00;;;;5017846;28;20511;-81
2022/01/14 05:33:33;;;;;;;13.83;9.07;;;2.80;74.50;2.60;98030.00;;;;5018277;28;20997;-82
2022/01/14 05:36:00;;;;;;;14.90;9.17;;;2.80;74.40;2.60;98032.00;;;;5017637;28;21011;-82
2022/01/14 05:38:28;;;;;;;17.30;10.37;;;2.80;74.50;2.60;98038.00;;;;5018247;28;20873;-82
2022/01/14 05:40:55;;;;;;;14.83;9.63;;;2.90;74.50;2.60;98045.00;;;;5018082;28;20440;-85
2022/01/14 05:43:22;;;;;;;12.80;8.67;;;2.80;74.30;2.60;98049.00;;;;5019214;28;20436;-82
2022/01/14 05:45:49;;;;;;;14.60;8.70;;;2.80;74.40;2.60;98049.00;;;;5011452;28;20468;-83
2022/01/14 05:48:16;;;;;;;15.63;9.00;;;2.80;74.50;2.60;98050.00;;;;5020206;28;20445;-81
2022/01/14 05:50:43;;;;;;;13.70;9.03;;;2.80;74.40;2.60;98057.00;;;;5019467;28;21025;-83
2022/01/14 05:53:10;;;;;;;14.00;9.27;;;2.80;74.40;2.60;98051.00;;;;5020287;28;20523;-82
2022/01/14 05:55:39;;;;;;;13.23;8.20;;;2.80;74.50;2.60;98045.00;;;;5019544;28;20464;-81
2022/01/14 05:58:06;;;;;;;17.47;10.00;;;2.80;74.60;2.60;98042.00;;;;5020215;28;20814;-82
2022/01/14 06:00:33;;;;;;;15.20;9.07;;;2.90;74.60;2.60;98043.00;;;;5019022;28;20472;-84
2022/01/14 06:03:00;;;;;;;15.23;10.07;;;2.90;74.60;2.60;98042.00;;;;5018229;28;20433;-82
2022/01/14 06:05:27;;;;;;;14.87;9.67;;;2.90;74.70;2.60;98045.00;;;;5018365;28;20471;-82
2022/01/14 06:07:54;;;;;;;14.33;9.03;;;2.90;74.60;2.60;98040.00;;;;5017994;28;20444;-82
2022/01/14 06:10:22;;;;;;;16.47;9.43;;;2.90;74.60;2.60;98045.00;;;;5018516;28;20476;-82
2022/01/14 06:12:51;;;;;;;16.70;10.43;;;2.90;74.50;2.60;98052.00;;;;5018806;28;20444;-84
2022/01/14 06:15:18;;;;;;;12.80;8.63;;;2.90;74.50;2.60;98044.00;;;;5022062;28;20853;-83
2022/01/14 06:17:46;;;;;;;13.67;8.57;;;3.00;74.40;2.60;98050.00;;;;5017721;28;20437;-82
2022/01/14 06:20:14;;;;;;;15.60;9.23;;;2.90;74.50;2.70;98058.00;;;;5016580;28;20452;-81
2022/01/14 06:22:41;;;;;;;16.60;9.47;;;2.90;74.40;2.70;98053.00;;;;5015998;28;20452;-83
2022/01/14 06:25:10;;;;;;;15.60;9.17;;;2.90;74.50;2.70;98048.00;;;;5016538;28;20471;-84
2022/01/14 06:27:37;;;;;;;17.73;10.43;;;2.90;74.50;2.70;98052.00;;;;5017565;28;20452;-83
2022/01/14 06:30:08;;;;;;;15.77;10.07;;;2.90;74.60;2.70;98046.00;;;;5014509;28;20567;-86
2022/01/14 06:32:41;;;;;;;16.50;10.03;;;2.90;74.50;2.70;98045.00;;;;5015283;28;20451;-83
2022/01/14 06:35:09;;;;;;;14.27;8.77;;;2.90;74.40;2.70;98041.00;;;;5014802;28;20501;-86
2022/01/14 06:37:36;;;;;;;16.33;10.60;;;2.90;75.10;2.70;98039.00;;;;5014905;28;20429;-83
2022/01/14 06:40:05;;;;;;;16.43;10.30;;;3.00;74.60;2.70;98033.00;;;;5014656;28;20448;-82
2022/01/14 06:42:33;;;;;;;15.80;9.90;;;3.00;74.60;2.70;98039.00;;;;5014634;28;20433;-84
2022/01/14 06:45:00;;;;;;;18.40;10.50;;;3.00;74.70;2.70;98035.00;;;;5013482;28;20461;-84
2022/01/14 06:47:28;;;;;;;17.60;10.60;;;3.00;74.60;2.80;98031.00;;;;5014089;28;20444;-82
2022/01/14 06:49:55;;;;;;;15.97;9.93;;;3.00;74.70;2.80;98034.00;;;;5012597;28;20485;-83
2022/01/14 06:52:23;;;;;;;17.37;10.93;;;3.00;74.60;2.70;98035.00;;;;5014365;28;20449;-84
2022/01/14 06:54:50;;;;;;;19.17;11.30;;;3.00;74.50;2.70;98032.00;;;;5013087;28;20462;-82
2022/01/14 06:57:18;;;;;;;17.10;10.03;;;3.00;74.40;2.70;98036.00;;;;5013461;28;20281;-83
2022/01/14 06:59:45;;;;;;;19.57;11.60;;;3.00;74.30;2.70;98045.00;;;;5012840;28;20457;-84
2022/01/14 07:02:13;;;;;;;15.90;10.87;;;2.90;74.20;2.70;98040.00;;;;5010757;28;20464;-84
2022/01/14 07:04:41;;;;;;;17.70;10.97;;;2.90;74.30;2.70;98038.00;;;;5013641;28;20833;-82
2022/01/14 07:07:08;;;;;;;18.83;11.33;;;2.90;75.10;2.70;98053.00;;;;5013904;28;20205;-84
2022/01/14 07:09:36;;;;;;;17.93;10.93;;;2.90;74.40;2.70;98045.00;;;;5015506;28;20473;-80
2022/01/14 07:12:05;;;;;;;15.53;10.07;;;2.90;74.50;2.80;98048.00;;;;5018371;28;20477;-80
2022/01/14 07:14:32;;;;;;;17.33;11.03;;;3.00;74.70;2.80;98045.00;;;;5016614;28;20449;-80
2022/01/14 07:16:59;;;;;;;17.87;10.63;;;3.00;74.80;2.90;98042.00;;;;5018673;28;20815;-80
2022/01/14 07:19:26;;;;;;;16.27;10.47;;;3.00;74.70;2.90;98046.00;;;;5006692;28;20450;-87
2022/01/14 07:21:55;;;;;;;15.03;10.90;;;3.00;74.90;3.00;98038.00;;;;5010783;28;20441;-82
2022/01/14 07:24:22;;;;;;;15.47;10.03;;;3.00;75.40;3.00;98044.00;;;;5012198;28;20448;-81
2022/01/14 07:26:50;;;;;;;18.63;10.97;;;3.00;74.60;3.00;98039.00;;;;5013506;28;20448;-80
2022/01/14 07:29:17;;;;;;;18.63;11.20;;;3.00;74.70;3.00;98045.00;;;;5012896;28;20472;-80
2022/01/14 07:31:44;;;;;;;17.47;11.03;;;3.10;74.70;3.10;98035.00;;;;5010048;28;20489;-80
2022/01/14 07:34:11;;;;;;;16.07;10.23;;;3.10;74.70;3.10;98031.00;;;;5011799;28;20461;-80
2022/01/14 07:36:38;;;;;;;19.33;11.53;;;3.10;74.70;3.10;98032.00;;;;5010162;28;20475;-81
2022/01/14 07:39:06;;;;;;;17.03;10.57;;;3.10;74.60;3.10;98032.00;;;;5011810;28;20437;-80
2022/01/14 07:41:34;;;;;;;19.20;11.47;;;3.10;74.60;3.10;98033.00;;;;5011021;28;20517;-79
2022/01/14 07:44:01;;;;;;;19.53;12.20;;;3.10;74.60;3.10;98039.00;;;;5012980;28;20461;-81
2022/01/14 07:46:28;;;;;;;18.83;11.63;;;3.20;74.60;3.20;98033.00;;;;5016998;28;20519;-84
2022/01/14 07:48:55;;;;;;;19.87;11.70;;;3.20;74.50;3.20;98043.00;;;;5016582;28;20444;-80
2022/01/14 07:51:23;;;;;;;19.20;11.27;;;3.20;74.60;3.20;98031.00;;;;5015096;28;20491;-80
2022/01/14 07:53:50;;;;;;;18.17;11.47;;;3.20;74.60;3.20;98038.00;;;;5016462;28;20818;-80
2022/01/14 07:56:18;;;;;;;20.23;11.77;;;3.20;74.50;3.20;98055.00;;;;5014598;28;20468;-81
2022/01/14 07:58:45;;;;;;;19.23;10.97;;;3.20;74.40;3.20;98060.00;;;;5019129;28;20205;-80
2022/01/14 08:01:12;;;;;;;18.57;11.90;;;3.20;74.30;3.20;98060.00;;;;5014919;28;20938;-83
2022/01/14 08:03:40;;;;;;;18.03;11.60;;;3.20;74.40;3.20;98065.00;;;;5016096;28;20453;-81
2022/01/14 08:06:10;;;;;;;19.17;11.97;;;3.20;74.40;3.30;98070.00;;;;5016654;28;20851;-83
2022/01/14 08:08:38;;;;;;;19.50;11.27;;;3.20;74.40;3.30;98072.00;;;;5015487;28;20441;-82
2022/01/14 08:11:06;;;;;;;18.47;11.67;;;3.30;74.50;3.30;98069.00;;;;5014927;28;20487;-81
2022/01/14 08:13:35;;;;;;;19.70;12.23;;;3.80;74.70;3.20;98068.00;;;;5015006;28;20200;-82
2022/01/14 08:16:02;;;;;;;19.00;12.13;;;3.30;74.20;3.20;98065.00;;;;5020397;28;20233;-82
2022/01/14 08:18:29;;;;;;;20.63;12.10;;;3.30;74.20;3.20;98065.00;;;;5021952;28;20574;-83
2022/01/14 08:20:56;;;;;;;18.10;11.20;;;3.30;74.30;3.20;98074.00;;;;5014623;28;20809;-81
2022/01/14 08:23:23;;;;;;;20.57;11.90;;;3.40;74.30;3.20;98067.00;;;;5014261;28;20856;-82
2022/01/14 08:25:53;;;;;;;20.10;11.23;;;3.30;74.40;3.30;98066.00;;;;5014713;28;20495;-80
2022/01/14 08:28:20;;;;;;;20.03;11.73;;;3.30;74.50;3.30;98064.00;;;;5014260;28;20523;-80
2022/01/14 08:30:48;;;;;;;19.70;11.70;;;3.30;74.60;3.30;98068.00;;;;5014746;28;20477;-81
2022/01/14 08:33:15;;;;;;;18.13;11.20;;;3.30;74.60;3.30;98069.00;;;;5015177;28;20200;-82
2022/01/14 08:35:43;;;;;;;20.10;12.27;;;3.30;74.60;3.30;98066.00;;;;5016707;28;20536;-80
2022/01/14 08:38:10;;;;;;;19.17;11.77;;;3.40;74.60;3.40;98066.00;;;;5014633;28;20236;-79
2022/01/14 08:40:38;;;;;;;21.67;13.30;;;3.40;74.70;3.40;98066.00;;;;5015527;28;20444;-80
2022/01/14 08:43:05;;;;;;;21.00;12.90;;;3.40;74.80;3.40;98054.00;;;;5015240;28;20441;-80
2022/01/14 08:45:32;;;;;;;20.80;13.00;;;3.40;74.80;3.50;98065.00;;;;5014468;28;20471;-82
2022/01/14 08:48:01;;;;;;;22.77;13.87;;;3.50;74.90;3.50;98068.00;;;;5014134;28;20961;-79
2022/01/14 08:50:34;;;;;;;22.00;13.23;;;3.50;74.90;3.50;98063.00;;;;5014048;28;20481;-81
2022/01/14 08:53:01;;;;;;;20.57;12.80;;;3.50;74.80;3.60;98058.00;;;;5014799;28;20452;-80
2022/01/14 08:55:28;;;;;;;21.33;12.87;;;3.30;74.70;3.60;98063.00;;;;5011391;28;20473;-84
2022/01/14 08:57:56;;;;;;;18.97;12.27;;;3.60;74.70;3.60;98065.00;;;;5008440;28;20225;-80
2022/01/14 09:00:26;;;;;;;19.63;12.13;;;3.60;74.80;3.70;98058.00;;;;5018045;28;20659;-82
2022/01/14 09:02:54;;;;;;;22.60;13.20;;;3.70;75.00;3.70;98072.00;;;;5020601;28;20543;-81
2022/01/14 09:05:24;;;;;;;20.03;12.93;;;3.70;75.00;3.70;98063.00;;;;5014825;28;20591;-80
2022/01/14 09:07:52;;;;;;;20.10;12.53;;;3.70;74.90;3.70;98054.00;;;;5014934;28;20190;-81
2022/01/14 09:10:21;;;;;;;18.43;11.40;;;3.70;75.00;3.80;98053.00;;;;5016737;28;20224;-81
2022/01/14 09:12:48;;;;;;;19.70;11.97;;;3.90;75.20;3.80;98054.00;;;;5014815;28;20205;-80
2022/01/14 09:15:17;;;;;;;21.67;12.90;;;3.80;75.10;3.90;98055.00;;;;5003035;28;20230;-83
2022/01/14 09:17:45;;;;;;;21.07;13.17;;;3.90;75.20;3.90;98053.00;;;;5013273;28;20206;-83
2022/01/14 09:20:13;;;;;;;25.20;14.20;;;3.90;75.80;3.90;98048.00;;;;5000736;28;20205;-84
2022/01/14 09:22:47;;;;;;;18.27;11.77;;;3.90;75.10;4.00;98063.00;;;;5013229;28;20614;-83
2022/01/14 09:25:18;;;;;;;21.17;12.87;;;3.90;75.10;4.00;98054.00;;;;5014812;28;20225;-82
2022/01/14 09:27:47;;;;;;;21.13;13.10;;;4.00;75.10;4.00;98059.00;;;;5013394;28;20206;-84
2022/01/14 09:30:14;;;;;;;19.80;11.90;;;4.00;75.20;4.10;98051.00;;;;5012391;28;20194;-83
2022/01/14 09:32:41;;;;;;;21.07;13.07;;;4.10;75.40;4.10;98053.00;;;;5012976;28;20200;-84
2022/01/14 09:35:13;;;;;;;20.13;12.67;;;4.10;75.50;4.20;98065.00;;;;5012078;28;20224;-83
2022/01/14 09:37:44;;;;;;;18.03;11.47;;;4.20;75.50;4.20;98062.00;;;;5011836;28;20822;-83
2022/01/14 09:40:13;;;;;;;19.57;12.50;;;4.20;75.50;4.30;98061.00;;;;5012529;28;20248;-83
2022/01/14 09:42:40;;;;;;;19.30;12.67;;;4.30;75.60;4.30;98058.00;;;;5013746;28;20252;-83
2022/01/14 09:45:08;;;;;;;20.47;12.80;;;4.30;76.00;4.40;98057.00;;;;5005146;28;20296;-82
2022/01/14 09:47:35;;;;;;;19.77;12.63;;;4.40;76.40;4.50;98053.00;;;;5015872;28;20198;-83
2022/01/14 09:50:03;;;;;;;19.40;11.90;;;4.70;77.10;4.60;98054.00;;;;5024917;28;20203;-83
2022/01/14 09:52:30;;;;;;;20.50;12.77;;;4.70;77.00;4.70;98054.00;;;;5014543;28;20680;-82
2022/01/14 09:54:58;;;;;;;18.97;12.30;;;4.80;76.90;4.80;98047.00;;;;5016504;28;20210;-82
2022/01/14 09:57:25;;;;;;;19.90;12.87;;;4.90;76.60;5.00;98046.00;;;;5014171;28;20699;-83
2022/01/14 09:59:52;;;;;;;19.03;12.47;;;5.10;76.50;5.10;98045.00;;;;5013835;28;20230;-83
2022/01/14 10:02:32;;;;;;;19.53;11.87;;;5.20;76.90;5.30;98056.00;;;;5013872;28;20699;-83
2022/01/14 10:04:59;;;;;;;20.60;13.10;;;5.40;77.00;5.40;98041.00;;;;5012410;28;20218;-84
2022/01/14 10:07:26;;;;;;;21.57;13.07;;;5.60;77.30;5.60;98034.00;;;;5007428;28;20198;-84
2022/01/14 10:09:58;;;;;;;20.30;12.93;;;5.80;77.40;5.70;98043.00;;;;5009375;28;20688;-84
2022/01/14 10:12:31;;;;;;;21.87;13.17;;;6.10;77.70;5.90;98044.00;;;;5010845;28;20759;-84
2022/01/14 10:15:03;;;;;;;19.97;13.17;;;6.30;77.60;6.10;98042.00;;;;5013444;28;20224;-83
2022/01/14 10:17:39;;;;;;;18.07;11.47;;;6.60;77.70;6.30;98038.00;;;;5013245;28;20208;-84
2022/01/14 10:20:09;;;;;;;20.40;12.13;;;6.90;77.30;6.50;98040.00;;;;5009742;28;20689;-85
2022/01/14 10:22:42;;;;;;;17.70;11.57;;;7.10;77.00;6.60;98036.00;;;;5011282;28;20198;-84
2022/01/14 10:25:12;;;;;;;18.83;12.37;;;7.40;76.90;6.80;98037.00;;;;5010765;28;20277;-85
2022/01/14 10:27:44;;;;;;;20.97;13.17;;;7.60;76.20;7.00;98036.00;;;;5005873;28;20372;-85
2022/01/14 10:30:17;;;;;;;20.77;12.23;;;7.90;76.10;7.20;98032.00;;;;5012320;28;20675;-85
2022/01/14 10:33:03;;;;;;;19.13;12.23;;;8.10;75.80;7.40;98039.00;;;;4998567;28;20249;-85
2022/01/14 10:35:35;;;;;;;17.73;12.33;;;8.40;74.60;7.60;98043.00;;;;5011432;28;20213;-84
2022/01/14 10:38:06;;;;;;;19.60;12.57;;;8.50;74.30;7.70;98046.00;;;;5023317;28;20411;-85
2022/01/14 10:40:50;;;;;;;18.07;12.50;;;8.60;74.00;7.90;98052.00;;;;5016370;28;20573;-85
2022/01/14 10:43:22;;;;;;;17.93;12.23;;;8.70;73.80;8.00;98045.00;;;;5006825;28;20194;-84
2022/01/14 10:45:52;;;;;;;19.03;12.60;;;8.90;73.20;8.10;98048.00;;;;5011264;28;20218;-84
2022/01/14 10:48:30;;;;;;;17.87;12.07;;;8.90;72.90;8.20;98040.00;;;;5010264;28;20221;-85
2022/01/14 10:51:00;;;;;;;15.97;11.00;;;8.90;72.10;8.30;98039.00;;;;5004065;28;20297;-85
2022/01/14 10:53:34;;;;;;;17.10;11.67;;;8.90;71.90;8.40;98043.00;;;;5011802;28;20380;-85
2022/01/14 10:56:04;;;;;;;20.40;12.70;;;9.00;71.80;8.40;98033.00;;;;5005746;28;20221;-85
2022/01/14 10:58:37;;;;;;;19.77;12.03;;;8.90;71.40;8.40;98034.00;;;;5011788;28;20190;-85
2022/01/14 11:01:07;;;;;;;18.20;11.90;;;8.80;70.90;8.40;98038.00;;;;5018788;28;20202;-85
2022/01/14 11:03:38;;;;;;;17.93;11.83;;;8.70;70.90;8.40;98021.00;;;;5012015;28;20596;-85
2022/01/14 11:06:20;;;;;;;18.43;12.40;;;8.70;70.70;8.40;98023.00;;;;5012010;28;20214;-85
2022/01/14 11:08:50;;;;;;;17.63;11.57;;;8.60;70.30;8.30;98014.00;;;;5012855;28;20570;-85
2022/01/14 11:11:17;;;;;;;17.53;11.67;;;8.50;70.50;8.30;98012.00;;;;5011578;28;20312;-85
2022/01/14 11:14:07;;;;;;;17.00;12.27;;;8.40;70.40;8.20;98010.00;;;;5009485;28;20692;-85
2022/01/14 11:16:36;;;;;;;16.70;10.77;;;8.40;70.20;8.20;98008.00;;;;5023570;28;20328;-85
2022/01/14 11:19:20;;;;;;;18.37;12.03;;;8.30;70.50;8.10;98000.00;;;;5031674;28;20197;-86
2022/01/14 11:24:34;;;;;;;17.73;12.03;;;8.20;71.00;8.10;98003.00;;;;5013203;28;20233;-85
2022/01/14 11:27:10;;;;;;;15.60;11.20;;;8.10;70.90;8.10;97996.00;;;;5009952;28;20197;-85